sensor_id;sensor_type;location;lat;lon;timestamp;pressure;altitude;pressure_sealevel;temperature;humidity
63700;BME280;49845;47.130;142.766;2023-04-08T00:01:40;99445.09;;;4.73;79.33
63700;BME280;49845;47.130;142.766;2023-04-08T00:04:11;99448.56;;;4.72;79.97
63700;BME280;49845;47.130;142.766;2023-04-08T00:06:41;99443.44;;;4.63;80.34
63700;BME280;49845;47.130;142.766;2023-04-08T00:09:14;99446.00;;;4.68;81.01
63700;BME280;49845;47.130;142.766;2023-04-08T00:11:44;99417.66;;;4.42;80.66
63700;BME280;49845;47.130;142.766;2023-04-08T00:14:15;99452.06;;;4.65;82.21
63700;BME280;49845;47.130;142.766;2023-04-08T00:16:46;99450.25;;;4.80;83.14
63700;BME280;49845;47.130;142.766;2023-04-08T00:19:16;99448.53;;;4.79;82.77
63700;BME280;49845;47.130;142.766;2023-04-08T00:21:47;99450.19;;;4.92;82.35
63700;BME280;49845;47.130;142.766;2023-04-08T00:24:20;99433.84;;;4.87;82.45
63700;BME280;49845;47.130;142.766;2023-04-08T00:26:50;99444.97;;;4.95;82.40
63700;BME280;49845;47.130;142.766;2023-04-08T00:29:21;99432.06;;;4.89;81.53
63700;BME280;49845;47.130;142.766;2023-04-08T00:31:51;99443.06;;;5.18;82.40
63700;BME280;49845;47.130;142.766;2023-04-08T00:34:22;99451.66;;;5.24;80.55
63700;BME280;49845;47.130;142.766;2023-04-08T00:36:52;99450.72;;;5.35;80.62
63700;BME280;49845;47.130;142.766;2023-04-08T00:39:25;99439.22;;;5.66;82.12
63700;BME280;49845;47.130;142.766;2023-04-08T00:41:55;99390.09;;;5.53;80.15
63700;BME280;49845;47.130;142.766;2023-04-08T00:44:26;99439.00;;;5.87;80.14
63700;BME280;49845;47.130;142.766;2023-04-08T00:46:57;99439.00;;;5.87;79.27
63700;BME280;49845;47.130;142.766;2023-04-08T00:49:27;99449.44;;;5.81;77.92
63700;BME280;49845;47.130;142.766;2023-04-08T00:51:59;99450.28;;;5.81;78.58
63700;BME280;49845;47.130;142.766;2023-04-08T00:54:32;99454.56;;;5.84;78.76
63700;BME280;49845;47.130;142.766;2023-04-08T00:57:02;99454.56;;;5.87;78.20
63700;BME280;49845;47.130;142.766;2023-04-08T00:59:33;99441.69;;;5.76;76.90
63700;BME280;49845;47.130;142.766;2023-04-08T01:02:12;99442.56;;;5.77;76.71
63700;BME280;49845;47.130;142.766;2023-04-08T01:04:51;99404.72;;;5.60;77.84
63700;BME280;49845;47.130;142.766;2023-04-08T01:07:26;99455.38;;;5.97;77.09
63700;BME280;49845;47.130;142.766;2023-04-08T01:10:02;99366.59;;;5.72;77.79
63700;BME280;49845;47.130;142.766;2023-04-08T01:12:39;99461.00;;;6.31;76.53
63700;BME280;49845;47.130;142.766;2023-04-08T01:15:11;99444.75;;;6.18;74.21
63700;BME280;49845;47.130;142.766;2023-04-08T01:17:42;99454.25;;;6.18;73.60
63700;BME280;49845;47.130;142.766;2023-04-08T01:20:14;99457.59;;;6.29;73.15
63700;BME280;49845;47.130;142.766;2023-04-08T01:23:02;99450.56;;;6.37;73.78
63700;BME280;49845;47.130;142.766;2023-04-08T01:25:37;99438.28;;;6.52;72.78
63700;BME280;49845;47.130;142.766;2023-04-08T01:28:12;99458.69;;;6.78;72.77
63700;BME280;49845;47.130;142.766;2023-04-08T01:30:45;99448.31;;;6.79;71.46
63700;BME280;49845;47.130;142.766;2023-04-08T01:33:17;99452.66;;;6.76;69.43
63700;BME280;49845;47.130;142.766;2023-04-08T01:35:50;99446.56;;;6.78;68.79
63700;BME280;49845;47.130;142.766;2023-04-08T01:38:23;99444.91;;;6.74;68.54
63700;BME280;49845;47.130;142.766;2023-04-08T01:40:55;99451.94;;;6.66;66.95
63700;BME280;49845;47.130;142.766;2023-04-08T01:43:28;99445.16;;;6.56;66.80
63700;BME280;49845;47.130;142.766;2023-04-08T01:46:00;99408.22;;;6.37;68.22
63700;BME280;49845;47.130;142.766;2023-04-08T01:48:31;99389.50;;;6.09;69.36
63700;BME280;49845;47.130;142.766;2023-04-08T01:51:04;99457.47;;;6.38;70.32
63700;BME280;49845;47.130;142.766;2023-04-08T01:53:35;99431.81;;;6.14;71.08
63700;BME280;49845;47.130;142.766;2023-04-08T01:56:08;99453.22;;;6.33;70.84
63700;BME280;49845;47.130;142.766;2023-04-08T01:58:46;99442.00;;;6.32;71.20
63700;BME280;49845;47.130;142.766;2023-04-08T02:01:21;99446.84;;;6.60;70.32
63700;BME280;49845;47.130;142.766;2023-04-08T02:03:54;99436.34;;;6.66;68.90
63700;BME280;49845;47.130;142.766;2023-04-08T02:06:27;99406.16;;;6.60;68.82
63700;BME280;49845;47.130;142.766;2023-04-08T02:08:59;99422.09;;;6.95;68.52
63700;BME280;49845;47.130;142.766;2023-04-08T02:11:30;99409.72;;;7.12;67.21
63700;BME280;49845;47.130;142.766;2023-04-08T02:14:02;99414.91;;;7.12;63.94
63700;BME280;49845;47.130;142.766;2023-04-08T02:16:39;99411.94;;;6.79;65.38
63700;BME280;49845;47.130;142.766;2023-04-08T02:19:14;99417.31;;;6.67;65.19
63700;BME280;49845;47.130;142.766;2023-04-08T02:21:50;99408.75;;;6.59;65.86
63700;BME280;49845;47.130;142.766;2023-04-08T02:24:22;99402.59;;;6.67;67.31
63700;BME280;49845;47.130;142.766;2023-04-08T02:26:54;99392.75;;;6.89;67.88
63700;BME280;49845;47.130;142.766;2023-04-08T02:29:30;99341.19;;;6.65;66.04
63700;BME280;49845;47.130;142.766;2023-04-08T02:32:01;99402.38;;;6.83;67.89
63700;BME280;49845;47.130;142.766;2023-04-08T02:34:34;99373.88;;;6.78;68.63
63700;BME280;49845;47.130;142.766;2023-04-08T02:37:05;99409.59;;;7.18;67.79
63700;BME280;49845;47.130;142.766;2023-04-08T02:39:36;99402.31;;;7.39;68.28
63700;BME280;49845;47.130;142.766;2023-04-08T02:42:07;99398.22;;;7.76;68.99
63700;BME280;49845;47.130;142.766;2023-04-08T02:44:40;99363.66;;;7.68;67.33
63700;BME280;49845;47.130;142.766;2023-04-08T02:47:10;99396.31;;;7.85;65.08
63700;BME280;49845;47.130;142.766;2023-04-08T02:49:41;99388.34;;;7.92;63.81
63700;BME280;49845;47.130;142.766;2023-04-08T02:52:11;99385.97;;;7.82;63.05
63700;BME280;49845;47.130;142.766;2023-04-08T02:54:42;99393.84;;;7.77;62.71
63700;BME280;49845;47.130;142.766;2023-04-08T02:57:13;99379.63;;;7.50;63.27
63700;BME280;49845;47.130;142.766;2023-04-08T02:59:46;99374.91;;;7.22;63.95
63700;BME280;49845;47.130;142.766;2023-04-08T03:02:16;99380.81;;;6.76;66.66
63700;BME280;49845;47.130;142.766;2023-04-08T03:04:47;99388.25;;;6.40;67.35
63700;BME280;49845;47.130;142.766;2023-04-08T03:07:18;99385.13;;;6.17;67.10
63700;BME280;49845;47.130;142.766;2023-04-08T03:09:50;99371.53;;;5.93;67.58
63700;BME280;49845;47.130;142.766;2023-04-08T03:12:22;99311.59;;;5.45;67.86
63700;BME280;49845;47.130;142.766;2023-04-08T03:14:56;99385.38;;;5.95;68.36
63700;BME280;49845;47.130;142.766;2023-04-08T03:17:27;99267.66;;;5.36;67.95
63700;BME280;49845;47.130;142.766;2023-04-08T03:20:00;99380.09;;;6.01;68.35
63700;BME280;49845;47.130;142.766;2023-04-08T03:22:33;99397.38;;;6.02;67.96
63700;BME280;49845;47.130;142.766;2023-04-08T03:25:04;99374.84;;;6.08;67.93
63700;BME280;49845;47.130;142.766;2023-04-08T03:27:35;99379.94;;;6.14;68.28
63700;BME280;49845;47.130;142.766;2023-04-08T03:30:08;99376.56;;;6.09;68.61
63700;BME280;49845;47.130;142.766;2023-04-08T03:32:38;99373.00;;;6.16;68.93
63700;BME280;49845;47.130;142.766;2023-04-08T03:35:09;99367.00;;;6.12;68.88
63700;BME280;49845;47.130;142.766;2023-04-08T03:37:40;99369.69;;;6.04;68.26
63700;BME280;49845;47.130;142.766;2023-04-08T03:40:11;99368.00;;;6.00;69.40
63700;BME280;49845;47.130;142.766;2023-04-08T03:42:42;99334.50;;;5.80;68.04
63700;BME280;49845;47.130;142.766;2023-04-08T03:45:14;99363.53;;;6.13;68.96
63700;BME280;49845;47.130;142.766;2023-04-08T03:47:45;99357.22;;;6.34;69.22
63700;BME280;49845;47.130;142.766;2023-04-08T03:50:15;99336.47;;;6.31;68.45
63700;BME280;49845;47.130;142.766;2023-04-08T03:52:46;99353.84;;;6.26;68.93
63700;BME280;49845;47.130;142.766;2023-04-08T03:55:17;99354.56;;;6.37;69.58
63700;BME280;49845;47.130;142.766;2023-04-08T03:57:47;99256.75;;;5.79;68.95
63700;BME280;49845;47.130;142.766;2023-04-08T04:00:19;99352.19;;;6.22;67.73
63700;BME280;49845;47.130;142.766;2023-04-08T04:02:50;99349.56;;;6.23;69.52
63700;BME280;49845;47.130;142.766;2023-04-08T04:05:23;99327.94;;;6.23;68.11
63700;BME280;49845;47.130;142.766;2023-04-08T04:07:53;99341.06;;;6.12;68.43
63700;BME280;49845;47.130;142.766;2023-04-08T04:10:25;99348.88;;;6.11;68.76
63700;BME280;49845;47.130;142.766;2023-04-08T04:12:56;99350.63;;;6.09;68.05
63700;BME280;49845;47.130;142.766;2023-04-08T04:15:28;99357.59;;;6.07;68.52
63700;BME280;49845;47.130;142.766;2023-04-08T04:17:59;99355.81;;;6.09;69.83
63700;BME280;49845;47.130;142.766;2023-04-08T04:20:30;99345.47;;;6.05;67.79
63700;BME280;49845;47.130;142.766;2023-04-08T04:23:00;99353.19;;;6.12;68.40
63700;BME280;49845;47.130;142.766;2023-04-08T04:25:31;99357.44;;;6.16;66.69
63700;BME280;49845;47.130;142.766;2023-04-08T04:28:01;99354.09;;;6.08;68.20
63700;BME280;49845;47.130;142.766;2023-04-08T04:30:36;99307.88;;;5.68;67.11
63700;BME280;49845;47.130;142.766;2023-04-08T04:33:06;99351.72;;;5.88;67.14
63700;BME280;49845;47.130;142.766;2023-04-08T04:35:38;99369.94;;;5.80;68.78
63700;BME280;49845;47.130;142.766;2023-04-08T04:38:09;99357.78;;;5.85;69.00
63700;BME280;49845;47.130;142.766;2023-04-08T04:40:40;99357.88;;;5.76;68.69
63700;BME280;49845;47.130;142.766;2023-04-08T04:43:11;99334.56;;;5.77;69.63
63700;BME280;49845;47.130;142.766;2023-04-08T04:45:44;99346.53;;;5.88;72.05
63700;BME280;49845;47.130;142.766;2023-04-08T04:48:14;99325.94;;;5.74;70.99
63700;BME280;49845;47.130;142.766;2023-04-08T04:50:54;99344.94;;;5.77;71.41
63700;BME280;49845;47.130;142.766;2023-04-08T04:53:25;99350.19;;;5.70;70.66
63700;BME280;49845;47.130;142.766;2023-04-08T04:55:57;99335.44;;;5.75;72.16
63700;BME280;49845;47.130;142.766;2023-04-08T04:58:30;99343.78;;;6.04;71.55
63700;BME280;49845;47.130;142.766;2023-04-08T05:01:03;99339.28;;;6.16;70.69
63700;BME280;49845;47.130;142.766;2023-04-08T05:03:34;99333.31;;;6.11;70.64
63700;BME280;49845;47.130;142.766;2023-04-08T05:06:06;99336.78;;;6.10;68.90
63700;BME280;49845;47.130;142.766;2023-04-08T05:08:38;99352.19;;;6.22;69.70
63700;BME280;49845;47.130;142.766;2023-04-08T05:11:10;99343.56;;;6.20;69.22
63700;BME280;49845;47.130;142.766;2023-04-08T05:13:42;99340.22;;;6.12;68.71
63700;BME280;49845;47.130;142.766;2023-04-08T05:16:17;99337.66;;;6.09;69.28
63700;BME280;49845;47.130;142.766;2023-04-08T05:18:49;99335.22;;;5.96;69.64
63700;BME280;49845;47.130;142.766;2023-04-08T05:21:22;99322.41;;;5.81;71.67
63700;BME280;49845;47.130;142.766;2023-04-08T05:23:53;99347.34;;;5.91;71.41
63700;BME280;49845;47.130;142.766;2023-04-08T05:26:25;99346.53;;;5.88;70.84
63700;BME280;49845;47.130;142.766;2023-04-08T05:28:57;99356.19;;;5.75;71.79
63700;BME280;49845;47.130;142.766;2023-04-08T05:31:30;99363.06;;;5.76;70.81
63700;BME280;49845;47.130;142.766;2023-04-08T05:34:02;99366.59;;;5.72;70.08
63700;BME280;49845;47.130;142.766;2023-04-08T05:36:34;99376.97;;;5.69;70.82
63700;BME280;49845;47.130;142.766;2023-04-08T05:39:05;99354.72;;;5.52;70.72
63700;BME280;49845;47.130;142.766;2023-04-08T05:41:37;99365.78;;;5.65;70.52
63700;BME280;49845;47.130;142.766;2023-04-08T05:44:09;99378.75;;;5.63;70.04
63700;BME280;49845;47.130;142.766;2023-04-08T05:46:42;99381.34;;;5.67;70.75
63700;BME280;49845;47.130;142.766;2023-04-08T05:49:13;99377.03;;;5.66;70.91
63700;BME280;49845;47.130;142.766;2023-04-08T05:51:45;99387.34;;;5.72;69.96
63700;BME280;49845;47.130;142.766;2023-04-08T05:54:17;99389.13;;;5.67;68.41
63700;BME280;49845;47.130;142.766;2023-04-08T05:56:49;99391.69;;;5.68;69.68
63700;BME280;49845;47.130;142.766;2023-04-08T05:59:20;99389.09;;;5.70;68.08
63700;BME280;49845;47.130;142.766;2023-04-08T06:01:54;99389.13;;;5.67;68.24
63700;BME280;49845;47.130;142.766;2023-04-08T06:04:26;99388.97;;;5.79;68.11
63700;BME280;49845;47.130;142.766;2023-04-08T06:06:58;99400.03;;;5.98;67.90
63700;BME280;49845;47.130;142.766;2023-04-08T06:09:35;99367.31;;;5.81;67.22
63700;BME280;49845;47.130;142.766;2023-04-08T06:12:08;99397.25;;;6.15;67.53
63700;BME280;49845;47.130;142.766;2023-04-08T06:14:39;99406.00;;;6.04;69.51
63700;BME280;49845;47.130;142.766;2023-04-08T06:17:13;99401.72;;;6.02;70.91
63700;BME280;49845;47.130;142.766;2023-04-08T06:19:45;99402.56;;;6.02;71.43
63700;BME280;49845;47.130;142.766;2023-04-08T06:22:17;99364.72;;;5.83;72.02
63700;BME280;49845;47.130;142.766;2023-04-08T06:24:48;99416.34;;;6.08;71.71
63700;BME280;49845;47.130;142.766;2023-04-08T06:27:20;99414.78;;;5.88;72.04
63700;BME280;49845;47.130;142.766;2023-04-08T06:29:52;99416.66;;;5.77;72.18
63700;BME280;49845;47.130;142.766;2023-04-08T06:32:25;99415.03;;;5.67;71.68
63700;BME280;49845;47.130;142.766;2023-04-08T06:34:57;99411.59;;;5.65;71.36
63700;BME280;49845;47.130;142.766;2023-04-08T06:37:29;99417.63;;;5.65;71.67
63700;BME280;49845;47.130;142.766;2023-04-08T06:40:02;99425.38;;;5.70;71.86
63700;BME280;49845;47.130;142.766;2023-04-08T06:42:34;99434.53;;;6.01;72.10
63700;BME280;49845;47.130;142.766;2023-04-08T06:45:06;99437.00;;;6.17;71.44
63700;BME280;49845;47.130;142.766;2023-04-08T06:47:40;99433.50;;;6.18;69.91
63700;BME280;49845;47.130;142.766;2023-04-08T06:50:12;99433.56;;;6.15;69.60
63700;BME280;49845;47.130;142.766;2023-04-08T06:52:44;99429.16;;;6.20;70.04
63700;BME280;49845;47.130;142.766;2023-04-08T06:55:15;99438.47;;;6.36;68.81
63700;BME280;49845;47.130;142.766;2023-04-08T06:57:47;99438.56;;;6.30;68.31
63700;BME280;49845;47.130;142.766;2023-04-08T07:00:22;99444.69;;;6.21;68.88
63700;BME280;49845;47.130;142.766;2023-04-08T07:03:03;99442.19;;;6.17;68.59
63700;BME280;49845;47.130;142.766;2023-04-08T07:05:35;99408.59;;;6.04;70.14
63700;BME280;49845;47.130;142.766;2023-04-08T07:08:06;99445.34;;;6.40;70.00
63700;BME280;49845;47.130;142.766;2023-04-08T07:10:37;99447.94;;;6.42;69.57
63700;BME280;49845;47.130;142.766;2023-04-08T07:13:08;99458.16;;;6.54;69.45
63700;BME280;49845;47.130;142.766;2023-04-08T07:15:39;99402.22;;;6.30;69.11
63700;BME280;49845;47.130;142.766;2023-04-08T07:18:12;99454.63;;;6.60;66.66
63700;BME280;49845;47.130;142.766;2023-04-08T07:20:43;99462.50;;;6.51;66.12
63700;BME280;49845;47.130;142.766;2023-04-08T07:23:13;99452.56;;;6.17;64.34
63700;BME280;49845;47.130;142.766;2023-04-08T07:25:44;99464.78;;;6.05;64.14
63700;BME280;49845;47.130;142.766;2023-04-08T07:28:15;99456.34;;;5.79;64.82
63700;BME280;49845;47.130;142.766;2023-04-08T07:30:46;99467.63;;;5.79;65.05
63700;BME280;49845;47.130;142.766;2023-04-08T07:33:22;99472.88;;;5.69;64.88
63700;BME280;49845;47.130;142.766;2023-04-08T07:36:06;99472.91;;;5.67;65.24
63700;BME280;49845;47.130;142.766;2023-04-08T07:38:44;99470.34;;;5.62;65.65
63700;BME280;49845;47.130;142.766;2023-04-08T07:41:15;99476.34;;;5.69;65.18
63700;BME280;49845;47.130;142.766;2023-04-08T07:43:46;99487.53;;;5.73;65.56
63700;BME280;49845;47.130;142.766;2023-04-08T07:46:17;99476.47;;;5.55;66.58
63700;BME280;49845;47.130;142.766;2023-04-08T07:48:49;99490.31;;;5.51;67.83
63700;BME280;49845;47.130;142.766;2023-04-08T07:51:21;99481.75;;;5.41;68.19
63700;BME280;49845;47.130;142.766;2023-04-08T07:53:51;99482.75;;;5.27;68.90
63700;BME280;49845;47.130;142.766;2023-04-08T07:56:22;99488.03;;;5.10;69.45
63700;BME280;49845;47.130;142.766;2023-04-08T07:58:53;99489.84;;;4.97;70.43
63700;BME280;49845;47.130;142.766;2023-04-08T08:01:24;99499.41;;;4.87;72.36
63700;BME280;49845;47.130;142.766;2023-04-08T08:04:00;99486.53;;;4.70;74.27
63700;BME280;49845;47.130;142.766;2023-04-08T08:06:31;99488.31;;;4.62;75.88
63700;BME280;49845;47.130;142.766;2023-04-08T08:09:02;99501.25;;;4.59;77.21
63700;BME280;49845;47.130;142.766;2023-04-08T08:11:32;99498.69;;;4.53;79.07
63700;BME280;49845;47.130;142.766;2023-04-08T08:14:03;99513.38;;;4.46;79.98
63700;BME280;49845;47.130;142.766;2023-04-08T08:16:35;99506.50;;;4.41;80.69
63700;BME280;49845;47.130;142.766;2023-04-08T08:19:07;99397.28;;;3.65;81.46
63700;BME280;49845;47.130;142.766;2023-04-08T08:21:39;99506.56;;;4.25;82.31
63700;BME280;49845;47.130;142.766;2023-04-08T08:24:10;99497.09;;;4.09;82.62
63700;BME280;49845;47.130;142.766;2023-04-08T08:26:41;99516.06;;;4.11;82.94
63700;BME280;49845;47.130;142.766;2023-04-08T08:29:12;99510.91;;;4.02;83.72
63700;BME280;49845;47.130;142.766;2023-04-08T08:31:43;99518.69;;;4.00;83.63
63700;BME280;49845;47.130;142.766;2023-04-08T08:34:17;99514.38;;;3.98;84.04
63700;BME280;49845;47.130;142.766;2023-04-08T08:36:48;99509.22;;;3.95;83.54
63700;BME280;49845;47.130;142.766;2023-04-08T08:39:19;99514.38;;;3.92;83.33
63700;BME280;49845;47.130;142.766;2023-04-08T08:41:49;99524.69;;;3.92;83.04
63700;BME280;49845;47.130;142.766;2023-04-08T08:44:20;99526.44;;;3.86;82.89
63700;BME280;49845;47.130;142.766;2023-04-08T08:46:51;99536.78;;;3.80;82.79
63700;BME280;49845;47.130;142.766;2023-04-08T08:49:24;99547.13;;;3.77;82.84
63700;BME280;49845;47.130;142.766;2023-04-08T08:51:55;99548.00;;;3.73;82.78
63700;BME280;49845;47.130;142.766;2023-04-08T08:54:26;99555.75;;;3.67;82.40
63700;BME280;49845;47.130;142.766;2023-04-08T08:56:57;99545.41;;;3.61;80.92
63700;BME280;49845;47.130;142.766;2023-04-08T08:59:29;99535.06;;;3.45;80.02
63700;BME280;49845;47.130;142.766;2023-04-08T09:02:26;99536.78;;;3.46;80.14
63700;BME280;49845;47.130;142.766;2023-04-08T09:05:17;99534.19;;;3.36;79.95
63700;BME280;49845;47.130;142.766;2023-04-08T09:07:48;99537.63;;;3.27;79.88
63700;BME280;49845;47.130;142.766;2023-04-08T09:10:28;99528.13;;;3.14;79.72
63700;BME280;49845;47.130;142.766;2023-04-08T09:12:59;99549.66;;;3.10;80.19
63700;BME280;49845;47.130;142.766;2023-04-08T09:15:30;99543.59;;;3.01;80.06
63700;BME280;49845;47.130;142.766;2023-04-08T09:18:01;99553.03;;;2.93;80.23
63700;BME280;49845;47.130;142.766;2023-04-08T09:20:35;99559.03;;;2.86;80.43
63700;BME280;49845;47.130;142.766;2023-04-08T09:23:06;99540.94;;;2.72;80.58
63700;BME280;49845;47.130;142.766;2023-04-08T09:25:38;99554.66;;;2.68;80.60
63700;BME280;49845;47.130;142.766;2023-04-08T09:28:19;99558.91;;;2.62;81.01
63700;BME280;49845;47.130;142.766;2023-04-08T09:30:50;99563.19;;;2.56;81.51
63700;BME280;49845;47.130;142.766;2023-04-08T09:33:29;99554.56;;;2.47;81.36
63700;BME280;49845;47.130;142.766;2023-04-08T09:36:03;99566.59;;;2.43;81.75
63700;BME280;49845;47.130;142.766;2023-04-08T09:38:35;99572.56;;;2.39;82.12
63700;BME280;49845;47.130;142.766;2023-04-08T09:41:07;99571.69;;;2.32;81.88
63700;BME280;49845;47.130;142.766;2023-04-08T09:43:41;99575.97;;;2.32;82.15
63700;BME280;49845;47.130;142.766;2023-04-08T09:46:23;99575.94;;;2.29;82.15
63700;BME280;49845;47.130;142.766;2023-04-08T09:49:00;99562.06;;;2.08;81.92
63700;BME280;49845;47.130;142.766;2023-04-08T09:51:41;99587.91;;;2.18;82.01
63700;BME280;49845;47.130;142.766;2023-04-08T09:54:19;99587.88;;;2.10;82.11
63700;BME280;49845;47.130;142.766;2023-04-08T09:56:56;99580.84;;;1.92;82.60
63700;BME280;49845;47.130;142.766;2023-04-08T09:59:35;99599.72;;;1.85;83.23
63700;BME280;49845;47.130;142.766;2023-04-08T10:02:18;99606.44;;;1.67;84.45
63700;BME280;49845;47.130;142.766;2023-04-08T10:04:54;99608.03;;;1.56;85.58
63700;BME280;49845;47.130;142.766;2023-04-08T10:07:28;99609.66;;;1.48;86.33
63700;BME280;49845;47.130;142.766;2023-04-08T10:10:03;99599.16;;;1.26;86.78
63700;BME280;49845;47.130;142.766;2023-04-08T10:12:38;99616.19;;;1.17;88.02
63700;BME280;49845;47.130;142.766;2023-04-08T10:15:24;99610.75;;;0.91;89.29
63700;BME280;49845;47.130;142.766;2023-04-08T10:21:35;99594.88;;;0.57;91.90
63700;BME280;49845;47.130;142.766;2023-04-08T10:24:10;99589.59;;;0.45;93.36
63700;BME280;49845;47.130;142.766;2023-04-08T10:26:42;99608.47;;;0.47;93.83
63700;BME280;49845;47.130;142.766;2023-04-08T10:29:43;99615.28;;;0.45;94.05
63700;BME280;49845;47.130;142.766;2023-04-08T10:32:28;99613.59;;;0.47;94.41
63700;BME280;49845;47.130;142.766;2023-04-08T10:35:00;99615.25;;;0.41;94.67
63700;BME280;49845;47.130;142.766;2023-04-08T10:37:32;99603.06;;;0.28;94.29
63700;BME280;49845;47.130;142.766;2023-04-08T10:40:07;99625.38;;;0.32;94.49
63700;BME280;49845;47.130;142.766;2023-04-08T10:42:54;99597.53;;;0.01;94.40
63700;BME280;49845;47.130;142.766;2023-04-08T10:45:31;99635.41;;;0.14;94.76
63700;BME280;49845;47.130;142.766;2023-04-08T10:48:13;99637.94;;;0.12;95.32
63700;BME280;49845;47.130;142.766;2023-04-08T10:50:51;99643.06;;;0.11;95.29
63700;BME280;49845;47.130;142.766;2023-04-08T10:53:27;99626.56;;;-0.04;94.91
63700;BME280;49845;47.130;142.766;2023-04-08T10:56:08;99648.75;;;-0.09;95.48
63700;BME280;49845;47.130;142.766;2023-04-08T10:58:48;99633.28;;;-0.12;95.47
63700;BME280;49845;47.130;142.766;2023-04-08T11:01:20;99642.66;;;-0.14;95.63
63700;BME280;49845;47.130;142.766;2023-04-08T11:03:51;99646.00;;;-0.18;95.54
63700;BME280;49845;47.130;142.766;2023-04-08T11:06:25;99650.09;;;-0.29;95.57
63700;BME280;49845;47.130;142.766;2023-04-08T11:09:02;99642.88;;;-0.52;96.32
63700;BME280;49845;47.130;142.766;2023-04-08T11:11:35;99658.13;;;-0.58;97.06
63700;BME280;49845;47.130;142.766;2023-04-08T11:14:09;99657.25;;;-0.60;97.03
63700;BME280;49845;47.130;142.766;2023-04-08T11:16:40;99665.06;;;-0.54;97.46
63700;BME280;49845;47.130;142.766;2023-04-08T11:19:15;99668.53;;;-0.52;98.01
63700;BME280;49845;47.130;142.766;2023-04-08T11:21:45;99650.63;;;-0.49;97.78
63700;BME280;49845;47.130;142.766;2023-04-08T11:24:19;99666.00;;;-0.49;97.58
63700;BME280;49845;47.130;142.766;2023-04-08T11:26:52;99666.00;;;-0.49;97.39
63700;BME280;49845;47.130;142.766;2023-04-08T11:29:29;99668.53;;;-0.52;97.18
63700;BME280;49845;47.130;142.766;2023-04-08T11:32:02;99668.47;;;-0.55;97.30
63700;BME280;49845;47.130;142.766;2023-04-08T11:34:35;99658.13;;;-0.58;97.00
63700;BME280;49845;47.130;142.766;2023-04-08T11:37:10;99659.81;;;-0.60;96.91
63700;BME280;49845;47.130;142.766;2023-04-08T11:39:42;99628.63;;;-0.81;96.68
63700;BME280;49845;47.130;142.766;2023-04-08T11:42:27;99659.88;;;-0.57;96.19
63700;BME280;49845;47.130;142.766;2023-04-08T11:45:01;99656.59;;;-0.50;95.89
63700;BME280;49845;47.130;142.766;2023-04-08T11:47:39;99649.66;;;-0.54;95.73
63700;BME280;49845;47.130;142.766;2023-04-08T11:50:09;99631.66;;;-0.55;95.46
63700;BME280;49845;47.130;142.766;2023-04-08T11:52:41;99622.22;;;-0.58;94.92
63700;BME280;49845;47.130;142.766;2023-04-08T11:55:22;99634.50;;;-0.41;94.61
63700;BME280;49845;47.130;142.766;2023-04-08T11:58:01;99667.19;;;-0.31;93.48
63700;BME280;49845;47.130;142.766;2023-04-08T12:00:33;99662.00;;;-0.34;93.47
63700;BME280;49845;47.130;142.766;2023-04-08T12:03:08;99651.72;;;-0.34;93.19
63700;BME280;49845;47.130;142.766;2023-04-08T12:05:40;99643.19;;;-0.33;93.12
63700;BME280;49845;47.130;142.766;2023-04-08T12:08:14;99641.41;;;-0.37;92.94
63700;BME280;49845;47.130;142.766;2023-04-08T12:10:45;99647.31;;;-0.41;92.88
63700;BME280;49845;47.130;142.766;2023-04-08T12:13:17;99653.28;;;-0.43;92.79
63700;BME280;49845;47.130;142.766;2023-04-08T12:15:47;99637.88;;;-0.43;92.95
63700;BME280;49845;47.130;142.766;2023-04-08T12:18:18;99642.22;;;-0.40;92.90
63700;BME280;49845;47.130;142.766;2023-04-08T12:20:49;99642.22;;;-0.40;92.50
63700;BME280;49845;47.130;142.766;2023-04-08T12:23:22;99649.75;;;-0.48;92.64
63700;BME280;49845;47.130;142.766;2023-04-08T12:25:55;99641.06;;;-0.56;92.84
63700;BME280;49845;47.130;142.766;2023-04-08T12:28:30;99643.50;;;-0.63;92.59
63700;BME280;49845;47.130;142.766;2023-04-08T12:31:02;99637.38;;;-0.70;92.75
63700;BME280;49845;47.130;142.766;2023-04-08T12:33:32;99644.13;;;-0.75;93.16
63700;BME280;49845;47.130;142.766;2023-04-08T12:36:03;99620.78;;;-0.88;93.15
63700;BME280;49845;47.130;142.766;2023-04-08T12:38:40;99636.28;;;-0.83;93.26
63700;BME280;49845;47.130;142.766;2023-04-08T12:41:10;99621.59;;;-0.90;93.25
63700;BME280;49845;47.130;142.766;2023-04-08T12:43:45;99622.44;;;-0.91;93.32
63700;BME280;49845;47.130;142.766;2023-04-08T12:46:15;99636.28;;;-0.83;93.45
63700;BME280;49845;47.130;142.766;2023-04-08T12:48:46;99626.59;;;-0.98;93.52
63700;BME280;49845;47.130;142.766;2023-04-08T12:51:30;99627.38;;;-1.02;93.75
63700;BME280;49845;47.130;142.766;2023-04-08T12:54:02;99649.09;;;-0.84;93.70
63700;BME280;49845;47.130;142.766;2023-04-08T12:56:33;99644.78;;;-0.85;93.73
63700;BME280;49845;47.130;142.766;2023-04-08T12:59:05;99650.84;;;-0.80;93.40
63700;BME280;49845;47.130;142.766;2023-04-08T13:01:36;99633.56;;;-0.91;93.97
63700;BME280;49845;47.130;142.766;2023-04-08T13:04:07;99655.22;;;-0.76;93.39
63700;BME280;49845;47.130;142.766;2023-04-08T13:06:38;99633.47;;;-0.97;93.16
63700;BME280;49845;47.130;142.766;2023-04-08T13:09:08;99660.81;;;-0.96;93.13
63700;BME280;49845;47.130;142.766;2023-04-08T13:11:39;99662.31;;;-1.07;93.46
63700;BME280;49845;47.130;142.766;2023-04-08T13:14:11;99665.38;;;-1.23;94.18
63700;BME280;49845;47.130;142.766;2023-04-08T13:16:42;99663.41;;;-1.35;95.05
63700;BME280;49845;47.130;142.766;2023-04-08T13:19:13;99658.31;;;-1.34;95.70
63700;BME280;49845;47.130;142.766;2023-04-08T13:21:45;99649.66;;;-1.39;95.98